createdAt,value
2023-04-15T00:01:08.901Z,1.1
2023-04-15T00:03:39.803Z,1.1
2023-04-15T00:06:10.750Z,1.2
2023-04-15T00:08:51.290Z,1.2
2023-04-15T00:13:52.265Z,1.2
2023-04-15T00:16:22.845Z,1.3
2023-04-15T00:18:53.526Z,1.3
2023-04-15T00:21:24.102Z,1.4
2023-04-15T00:24:04.642Z,1.5
2023-04-15T00:26:35.192Z,1.4
2023-04-15T00:29:05.736Z,1.4
2023-04-15T00:31:36.287Z,1.4
2023-04-15T00:34:07.008Z,1.5
2023-04-15T00:36:37.576Z,1.6
2023-04-15T00:39:18.121Z,1.7
2023-04-15T00:41:48.674Z,1.7
2023-04-15T00:44:19.231Z,1.8
2023-04-15T00:46:49.801Z,1.8
2023-04-15T00:49:20.372Z,1.7
2023-04-15T00:54:40.920Z,1.4
2023-04-15T00:57:11.490Z,1.2
2023-04-15T00:59:42.036Z,1.1
2023-04-15T01:02:12.636Z,1.1
2023-04-15T01:04:43.730Z,1.3
2023-04-15T01:07:24.405Z,1.4
2023-04-15T01:09:54.956Z,1.5
2023-04-15T01:12:25.528Z,1.6
2023-04-15T01:14:56.083Z,1.6
2023-04-15T01:17:26.651Z,1.7
2023-04-15T01:19:57.440Z,1.7
2023-04-15T01:22:38.069Z,1.8
2023-04-15T01:25:08.656Z,1.8
2023-04-15T01:27:39.206Z,1.9
2023-04-15T01:30:09.802Z,1.9
2023-04-15T01:35:10.350Z,1.9
2023-04-15T01:37:50.904Z,2.0
2023-04-15T01:40:21.521Z,2.0
2023-04-15T01:42:52.083Z,1.9
2023-04-15T01:45:22.628Z,1.9
2023-04-15T01:47:53.219Z,1.9
2023-04-15T01:50:23.994Z,1.9
2023-04-15T01:53:04.702Z,1.9
2023-04-15T01:55:35.272Z,1.9
2023-04-15T01:58:05.805Z,1.9
2023-04-15T02:00:36.412Z,1.9
2023-04-15T02:03:07.066Z,1.9
2023-04-15T02:05:47.915Z,1.9
2023-04-15T02:08:18.460Z,1.9
2023-04-15T02:10:49.055Z,1.9
2023-04-15T02:15:49.660Z,1.9
2023-04-15T02:18:20.299Z,1.9
2023-04-15T02:21:00.892Z,1.9
2023-04-15T02:23:31.448Z,1.9
2023-04-15T02:26:04.328Z,1.9
2023-04-15T02:28:34.870Z,1.8
2023-04-15T02:31:05.452Z,1.8
2023-04-15T02:33:36.066Z,1.8
2023-04-15T02:36:16.673Z,1.8
2023-04-15T02:38:47.226Z,1.9
2023-04-15T02:41:17.791Z,1.9
2023-04-15T02:43:48.373Z,1.9
2023-04-15T02:46:21.536Z,1.8
2023-04-15T02:48:52.441Z,1.8
2023-04-15T02:51:33.405Z,1.7
2023-04-15T02:56:33.951Z,1.6
2023-04-15T02:59:04.520Z,1.6
2023-04-15T03:01:35.137Z,1.6
2023-04-15T03:04:15.969Z,1.6
2023-04-15T03:06:46.578Z,1.6
2023-04-15T03:09:17.134Z,1.6
2023-04-15T03:11:47.716Z,1.6
2023-04-15T03:14:18.246Z,1.6
2023-04-15T03:16:48.828Z,1.6
2023-04-15T03:19:29.352Z,1.6
2023-04-15T03:21:59.904Z,1.6
2023-04-15T03:24:30.446Z,1.6
2023-04-15T03:27:01.006Z,1.5
2023-04-15T03:29:31.541Z,1.5
2023-04-15T03:32:02.104Z,1.5
2023-04-15T03:37:12.693Z,1.5
2023-04-15T03:39:43.247Z,1.4
2023-04-15T03:42:13.787Z,1.4
2023-04-15T03:44:44.396Z,1.4
2023-04-15T03:47:14.937Z,1.5
2023-04-15T03:49:55.556Z,1.4
2023-04-15T03:52:26.129Z,1.5
2023-04-15T03:54:56.699Z,1.5
2023-04-15T03:57:27.238Z,1.4
2023-04-15T03:59:57.788Z,1.4
2023-04-15T04:02:48.624Z,1.4
2023-04-15T04:05:10.032Z,1.3
2023-04-15T04:07:40.611Z,1.4
2023-04-15T04:10:11.156Z,1.4
2023-04-15T04:12:51.706Z,1.4
2023-04-15T04:18:02.330Z,1.4
2023-04-15T04:20:32.954Z,1.5
2023-04-15T04:23:03.511Z,1.5
2023-04-15T04:25:34.064Z,1.5
2023-04-15T04:28:04.631Z,1.6
2023-04-15T04:30:35.180Z,1.6
2023-04-15T04:33:15.715Z,1.6
2023-04-15T04:35:46.349Z,1.6
2023-04-15T04:38:16.879Z,1.7
2023-04-15T04:40:47.449Z,1.7
2023-04-15T04:43:18.004Z,1.7
2023-04-15T04:45:48.590Z,1.7
2023-04-15T04:48:29.274Z,1.7
2023-04-15T04:50:59.845Z,1.7
2023-04-15T04:53:30.497Z,1.7
2023-04-15T04:58:31.084Z,1.7
2023-04-15T05:03:41.662Z,1.7
2023-04-15T05:06:12.627Z,1.8
2023-04-15T05:08:43.204Z,1.8
2023-04-15T05:11:14.218Z,1.9
2023-04-15T05:13:44.774Z,1.9
2023-04-15T05:16:25.389Z,2.0
2023-04-15T05:18:55.952Z,2.0
2023-04-15T05:21:26.536Z,2.0
2023-04-15T05:23:59.699Z,2.1
2023-04-15T05:26:30.318Z,2.0
2023-04-15T05:29:02.602Z,2.1
2023-04-15T05:31:43.416Z,2.1
2023-04-15T05:34:13.960Z,2.1
2023-04-15T05:39:14.494Z,2.1
2023-04-15T05:41:45.074Z,2.2
2023-04-15T05:44:15.631Z,2.2
2023-04-15T05:46:56.241Z,2.2
2023-04-15T05:49:26.773Z,2.3
2023-04-15T05:51:57.343Z,2.3
2023-04-15T05:54:27.910Z,2.3
2023-04-15T05:56:59.358Z,2.4
2023-04-15T05:59:30.099Z,2.4
2023-04-15T06:02:10.684Z,2.5
2023-04-15T06:04:41.351Z,2.6
2023-04-15T06:07:12.140Z,2.6
2023-04-15T06:09:42.687Z,2.6
2023-04-15T06:12:13.257Z,2.7
2023-04-15T06:14:43.817Z,2.7
2023-04-15T06:19:54.377Z,2.8
2023-04-15T06:22:24.917Z,2.8
2023-04-15T06:24:55.445Z,2.8
2023-04-15T06:27:25.979Z,2.9
2023-04-15T06:30:06.539Z,2.9
2023-04-15T06:32:37.130Z,3.0
2023-04-15T06:35:07.969Z,3.0
2023-04-15T06:37:38.548Z,3.1
2023-04-15T06:40:09.122Z,3.1
2023-04-15T06:42:39.680Z,3.3
2023-04-15T06:45:20.226Z,3.2
2023-04-15T06:47:50.960Z,3.3
2023-04-15T06:50:21.624Z,3.3
2023-04-15T06:52:52.169Z,3.3
2023-04-15T06:55:22.761Z,3.4
2023-04-15T07:00:33.324Z,3.4
2023-04-15T07:03:04.018Z,3.3
2023-04-15T07:05:34.669Z,3.4
2023-04-15T07:08:05.216Z,3.4
2023-04-15T07:10:45.767Z,3.5
2023-04-15T07:13:16.344Z,3.6
2023-04-15T07:15:56.957Z,3.6
2023-04-15T07:18:27.604Z,3.7
2023-04-15T07:20:58.157Z,3.8
2023-04-15T07:23:28.723Z,3.7
2023-04-15T07:25:59.342Z,3.7
2023-04-15T07:28:39.901Z,3.6
2023-04-15T07:31:10.867Z,3.7
2023-04-15T07:33:41.701Z,3.8
2023-04-15T07:36:12.284Z,3.8
2023-04-15T07:41:12.835Z,3.8
2023-04-15T07:43:53.366Z,3.8
2023-04-15T07:46:23.993Z,3.9
2023-04-15T07:48:54.684Z,3.9
2023-04-15T07:51:25.446Z,3.9
2023-04-15T07:53:55.987Z,3.8
2023-04-15T07:56:26.573Z,3.9
2023-04-15T07:59:07.125Z,3.9
2023-04-15T08:01:37.726Z,3.9
2023-04-15T08:04:08.470Z,4.0
2023-04-15T08:06:39.549Z,4.0
2023-04-15T08:09:10.093Z,4.0
2023-04-15T08:11:40.669Z,4.0
2023-04-15T08:14:21.229Z,4.1
2023-04-15T08:16:51.773Z,4.1
2023-04-15T08:21:52.360Z,4.2
2023-04-15T08:24:18.701Z,4.2
2023-04-15T08:27:00.034Z,4.3
2023-04-15T08:29:30.858Z,4.3
2023-04-15T08:32:01.427Z,4.4
2023-04-15T08:34:32.037Z,4.4
2023-04-15T08:37:02.632Z,4.3
2023-04-15T08:39:33.247Z,4.4
2023-04-15T08:42:13.849Z,4.4
2023-04-15T08:44:54.450Z,4.6
2023-04-15T08:47:25.043Z,4.6
2023-04-15T08:49:55.692Z,4.8
2023-04-15T08:52:26.250Z,4.9
2023-04-15T08:54:56.835Z,4.8
2023-04-15T09:02:37.517Z,5.2
2023-04-15T09:05:08.431Z,5.2
2023-04-15T09:07:38.989Z,5.4
2023-04-15T09:10:09.583Z,5.6
2023-04-15T09:12:50.153Z,5.7
2023-04-15T09:15:20.717Z,5.9
2023-04-15T09:20:21.281Z,5.8
2023-04-15T09:22:51.855Z,6.0
2023-04-15T09:25:22.448Z,6.0
2023-04-15T09:28:05.328Z,6.1
2023-04-15T09:30:35.936Z,5.9
2023-04-15T09:33:07.323Z,5.8
2023-04-15T09:35:37.896Z,5.9
2023-04-15T09:38:08.437Z,5.9
2023-04-15T09:43:19.007Z,6.1
2023-04-15T09:45:49.595Z,6.1
2023-04-15T09:48:20.296Z,6.2
2023-04-15T09:50:50.879Z,6.1
2023-04-15T09:53:21.457Z,6.2
2023-04-15T09:56:02.400Z,6.3
2023-04-15T09:58:32.985Z,6.5
2023-04-15T10:01:03.645Z,6.6
2023-04-15T10:03:34.452Z,6.8
2023-04-15T10:06:05.823Z,6.8
2023-04-15T10:08:36.395Z,6.8
2023-04-15T10:11:16.949Z,6.8
2023-04-15T10:13:48.066Z,6.8
2023-04-15T10:16:18.690Z,6.7
2023-04-15T10:18:49.285Z,6.8
2023-04-15T10:23:49.846Z,6.6
2023-04-15T10:26:30.758Z,6.5
2023-04-15T10:29:01.306Z,6.4
2023-04-15T10:31:31.948Z,6.3
2023-04-15T10:34:03.079Z,6.3
2023-04-15T10:36:33.768Z,6.2
2023-04-15T10:39:04.350Z,6.3
2023-04-15T10:41:44.925Z,6.2
2023-04-15T10:44:15.470Z,6.2
2023-04-15T10:46:46.221Z,6.1
2023-04-15T10:49:16.980Z,6.1
2023-04-15T10:51:47.615Z,6.1
2023-04-15T10:54:28.202Z,5.9
2023-04-15T10:56:58.796Z,5.7
2023-04-15T10:59:29.371Z,5.6
2023-04-15T11:04:30.029Z,6.0
2023-04-15T11:07:03.049Z,6.2
2023-04-15T11:09:43.605Z,6.3
2023-04-15T11:12:14.157Z,6.3
2023-04-15T11:14:44.714Z,6.3
2023-04-15T11:17:15.297Z,6.1
2023-04-15T11:19:45.967Z,5.9
2023-04-15T11:22:16.565Z,5.8
2023-04-15T11:24:57.108Z,5.8
2023-04-15T11:27:27.684Z,5.6
2023-04-15T11:29:58.247Z,5.6
2023-04-15T11:32:28.898Z,5.4
2023-04-15T11:34:59.574Z,5.4
2023-04-15T11:37:30.122Z,5.2
2023-04-15T11:40:10.729Z,5.2
2023-04-15T11:45:11.331Z,5.2
2023-04-15T11:47:41.964Z,4.9
2023-04-15T11:50:12.607Z,4.8
2023-04-15T11:52:53.196Z,4.7
2023-04-15T11:55:23.928Z,4.6
2023-04-15T11:57:54.506Z,4.5
2023-04-15T12:00:26.538Z,4.6
2023-04-15T12:02:57.163Z,4.5
2023-04-15T12:05:28.338Z,4.6
2023-04-15T12:08:08.897Z,4.7
2023-04-15T12:10:39.466Z,4.7
2023-04-15T12:13:10.046Z,4.7
2023-04-15T12:15:40.597Z,4.5
2023-04-15T12:18:11.305Z,4.5
2023-04-15T12:20:41.868Z,4.3
2023-04-15T12:25:52.444Z,4.1
2023-04-15T12:28:23.015Z,4.2
2023-04-15T12:30:53.656Z,4.1
2023-04-15T12:33:24.360Z,4.1
2023-04-15T12:36:04.922Z,4.1
2023-04-15T12:38:45.555Z,4.1
2023-04-15T12:41:16.210Z,4.0
2023-04-15T12:43:46.764Z,3.9
2023-04-15T12:46:17.423Z,3.9
2023-04-15T12:48:48.128Z,3.9
2023-04-15T12:51:18.706Z,4.0
2023-04-15T12:53:59.272Z,4.1
2023-04-15T12:56:29.831Z,4.0
2023-04-15T12:59:00.392Z,3.9
2023-04-15T13:01:31.097Z,3.9
2023-04-15T13:06:41.856Z,3.9
2023-04-15T13:09:12.457Z,3.9
2023-04-15T13:11:43.034Z,4.0
2023-04-15T13:14:13.654Z,3.9
2023-04-15T13:16:44.344Z,3.9
2023-04-15T13:19:14.885Z,3.9
2023-04-15T13:21:55.436Z,3.9
2023-04-15T13:24:25.977Z,4.0
2023-04-15T13:26:56.568Z,4.1
2023-04-15T13:29:27.132Z,4.2
2023-04-15T13:31:57.751Z,4.2
2023-04-15T13:34:28.320Z,4.3
2023-04-15T13:37:08.943Z,4.4
2023-04-15T13:39:39.479Z,4.4
2023-04-15T13:42:10.027Z,4.5
2023-04-15T13:47:10.641Z,4.5
2023-04-15T13:49:41.252Z,4.5
2023-04-15T13:52:21.840Z,4.5
2023-04-15T13:55:07.366Z,4.6
2023-04-15T13:57:20.845Z,4.6
2023-04-15T13:59:51.395Z,4.4
2023-04-15T14:02:22.257Z,4.5
2023-04-15T14:05:03.347Z,4.5
2023-04-15T14:07:33.900Z,4.4
2023-04-15T14:10:04.527Z,4.4
2023-04-15T14:12:35.225Z,4.3
2023-04-15T14:15:05.788Z,4.3
2023-04-15T14:17:36.350Z,4.3
2023-04-15T14:20:17.440Z,4.3
2023-04-15T14:22:48.023Z,4.2
2023-04-15T14:27:58.617Z,4.2
2023-04-15T14:30:29.223Z,4.3
2023-04-15T14:32:59.917Z,4.2
2023-04-15T14:35:40.631Z,4.3
2023-04-15T14:38:11.673Z,4.3
2023-04-15T14:40:42.312Z,4.2
2023-04-15T14:43:12.983Z,4.2
2023-04-15T14:45:44.530Z,4.2
2023-04-15T14:48:06.224Z,4.3
2023-04-15T14:50:46.906Z,4.3
2023-04-15T14:53:17.511Z,4.3
2023-04-15T14:55:48.114Z,4.2
2023-04-15T14:58:18.797Z,4.2
2023-04-15T15:00:49.360Z,4.3
2023-04-15T15:03:20.053Z,4.1
2023-04-15T15:08:41.317Z,4.1
2023-04-15T15:11:02.202Z,4.1
2023-04-15T15:13:32.839Z,4.1
2023-04-15T15:16:14.686Z,4.0
2023-04-15T15:18:45.527Z,4.0
2023-04-15T15:21:16.371Z,4.0
2023-04-15T15:23:46.934Z,4.0
2023-04-15T15:26:17.507Z,4.0
2023-04-15T15:28:48.057Z,4.0
2023-04-15T15:31:18.696Z,3.9
2023-04-15T15:33:59.373Z,4.0
2023-04-15T15:36:39.917Z,3.9
2023-04-15T15:39:10.481Z,3.9
2023-04-15T15:41:41.037Z,3.9
2023-04-15T15:44:11.617Z,3.9
2023-04-15T15:49:14.566Z,3.9
2023-04-15T15:51:45.124Z,3.9
2023-04-15T15:54:15.683Z,3.9
2023-04-15T15:56:46.247Z,3.8
2023-04-15T15:59:26.798Z,3.7
2023-04-15T16:01:57.397Z,3.7
2023-04-15T16:04:38.296Z,3.7
2023-04-15T16:07:09.151Z,3.5
2023-04-15T16:09:39.717Z,3.6
2023-04-15T16:12:10.313Z,3.5
2023-04-15T16:14:40.990Z,3.4
2023-04-15T16:17:11.581Z,3.3
2023-04-15T16:19:55.677Z,3.1
2023-04-15T16:22:21.020Z,3.1
2023-04-15T16:24:51.591Z,3.2
2023-04-15T16:29:52.190Z,3.1
2023-04-15T16:32:32.766Z,3.1
2023-04-15T16:35:03.611Z,3.1
2023-04-15T16:37:34.171Z,3.1
2023-04-15T16:40:04.730Z,3.2
2023-04-15T16:42:35.350Z,3.1
2023-04-15T16:45:05.945Z,3.2
2023-04-15T16:47:46.532Z,3.2
2023-04-15T16:50:17.186Z,3.2
2023-04-15T16:52:47.768Z,3.2
2023-04-15T16:55:18.323Z,3.1
2023-04-15T16:58:01.333Z,3.1
2023-04-15T17:00:22.863Z,3.1
2023-04-15T17:03:03.597Z,3.2
2023-04-15T17:05:34.770Z,3.2
2023-04-15T17:10:35.350Z,3.3
2023-04-15T17:13:05.915Z,3.3
2023-04-15T17:15:36.579Z,3.3
2023-04-15T17:18:17.264Z,3.3
2023-04-15T17:20:47.827Z,3.3
2023-04-15T17:23:18.398Z,3.3
2023-04-15T17:25:48.954Z,3.3
2023-04-15T17:28:19.586Z,3.4
2023-04-15T17:33:55.733Z,3.3
2023-04-15T17:36:00.010Z,3.3
2023-04-15T17:38:30.552Z,3.3
2023-04-15T17:41:01.110Z,3.3
2023-04-15T17:43:31.722Z,3.3
2023-04-15T17:46:12.339Z,3.2
2023-04-15T17:51:13.108Z,3.3
2023-04-15T17:53:43.639Z,3.3
2023-04-15T17:56:14.676Z,3.3
2023-04-15T17:58:45.220Z,3.3
2023-04-15T18:01:25.849Z,3.3
2023-04-15T18:03:56.698Z,3.2
2023-04-15T18:06:28.456Z,3.2
2023-04-15T18:08:59.032Z,3.3
2023-04-15T18:11:29.633Z,3.3
2023-04-15T18:14:00.219Z,3.3
2023-04-15T18:16:44.328Z,3.3
2023-04-15T18:19:14.887Z,3.3
2023-04-15T18:21:45.436Z,3.3
2023-04-15T18:24:15.974Z,3.3
2023-04-15T18:26:48.835Z,3.3
2023-04-15T18:31:59.704Z,3.3
2023-04-15T18:34:30.310Z,3.3
2023-04-15T18:37:00.900Z,3.3
2023-04-15T18:39:31.517Z,3.3
2023-04-15T18:42:02.093Z,3.3
2023-04-15T18:44:32.683Z,3.3
2023-04-15T18:47:13.294Z,3.3
2023-04-15T18:49:45.650Z,3.2
2023-04-15T18:52:16.234Z,3.2
2023-04-15T18:54:46.804Z,3.3
2023-04-15T18:57:22.749Z,3.3
2023-04-15T18:59:58.579Z,3.2
2023-04-15T19:02:29.157Z,3.2
2023-04-15T19:05:00.196Z,3.2
2023-04-15T19:07:30.765Z,3.2
2023-04-15T19:12:31.326Z,3.2
2023-04-15T19:15:11.879Z,3.2
2023-04-15T19:17:42.465Z,3.2
2023-04-15T19:20:13.179Z,3.2
2023-04-15T19:22:47.980Z,3.1
2023-04-15T19:25:18.561Z,3.1
2023-04-15T19:27:49.109Z,3.1
2023-04-15T19:30:30.543Z,3.1
2023-04-15T19:33:01.313Z,3.1
2023-04-15T19:35:31.960Z,3.1
2023-04-15T19:38:02.544Z,3.1
2023-04-15T19:40:33.083Z,3.1
2023-04-15T19:43:03.628Z,3.1
2023-04-15T19:45:44.212Z,3.1
2023-04-15T19:48:15.138Z,3.1
2023-04-15T19:53:15.718Z,3.1
2023-04-15T19:55:46.329Z,3.1
2023-04-15T19:58:16.885Z,3.1
2023-04-15T20:00:57.444Z,3.1
2023-04-15T20:03:28.329Z,3.1
2023-04-15T20:05:59.595Z,3.1
2023-04-15T20:08:30.158Z,3.1
2023-04-15T20:11:00.729Z,3.1
2023-04-15T20:13:36.774Z,3.1
2023-04-15T20:16:07.425Z,3.1
2023-04-15T20:18:38.426Z,3.1
2023-04-15T20:21:09.013Z,3.1
2023-04-15T20:23:39.537Z,3.1
2023-04-15T20:26:10.093Z,3.1
2023-04-15T20:28:50.652Z,3.1
2023-04-15T20:33:51.227Z,3.2
2023-04-15T20:36:22.464Z,3.2
2023-04-15T20:38:53.023Z,3.2
2023-04-15T20:41:23.781Z,3.2
2023-04-15T20:44:04.357Z,3.2
2023-04-15T20:46:44.946Z,3.2
2023-04-15T20:49:15.604Z,3.2
2023-04-15T20:51:46.165Z,3.2
2023-04-15T20:54:16.712Z,3.2
2023-04-15T20:56:47.303Z,3.2
2023-04-15T20:59:27.888Z,3.2
2023-04-15T21:01:58.554Z,3.2
2023-04-15T21:04:29.589Z,3.2
2023-04-15T21:07:00.195Z,3.3
2023-04-15T21:09:30.789Z,3.2
2023-04-15T21:14:41.349Z,3.3
2023-04-15T21:17:11.905Z,3.3
2023-04-15T21:19:42.541Z,3.3
2023-04-15T21:22:13.144Z,3.3
2023-04-15T21:24:43.728Z,3.3
2023-04-15T21:27:24.324Z,3.3
2023-04-15T21:29:54.892Z,3.3
2023-04-15T21:32:25.444Z,3.2
2023-04-15T21:34:56.129Z,3.3
2023-04-15T21:37:26.677Z,3.2
2023-04-15T21:39:57.219Z,3.2
2023-04-15T21:42:37.779Z,3.2
2023-04-15T21:48:04.614Z,3.2
2023-04-15T21:50:08.673Z,3.2
2023-04-15T21:55:09.220Z,3.2
2023-04-15T21:57:49.760Z,3.2
2023-04-15T22:00:20.301Z,3.2
2023-04-15T22:02:51.418Z,3.2
2023-04-15T22:05:22.473Z,3.2
2023-04-15T22:07:53.010Z,3.2
2023-04-15T22:10:33.576Z,3.2
2023-04-15T22:13:04.137Z,3.2
2023-04-15T22:15:34.764Z,3.2
2023-04-15T22:18:05.320Z,3.2
2023-04-15T22:20:35.904Z,3.2
2023-04-15T22:23:06.481Z,3.2
2023-04-15T22:25:47.980Z,3.2
2023-04-15T22:28:18.507Z,3.2
2023-04-15T22:30:49.074Z,3.2
2023-04-15T22:35:49.751Z,3.2
2023-04-15T22:38:20.309Z,3.2
2023-04-15T22:41:00.874Z,3.2
2023-04-15T22:43:31.434Z,3.2
2023-04-15T22:46:02.064Z,3.2
2023-04-15T22:48:32.823Z,3.2
2023-04-15T22:51:03.405Z,3.2
2023-04-15T22:53:34.001Z,3.2
2023-04-15T22:56:14.581Z,3.2
2023-04-15T22:58:55.156Z,3.2
2023-04-15T23:01:25.822Z,3.1
2023-04-15T23:03:58.837Z,3.2
2023-04-15T23:06:18.632Z,3.2
2023-04-15T23:08:49.184Z,3.2
2023-04-15T23:11:29.984Z,3.1
2023-04-15T23:16:40.724Z,3.2
2023-04-15T23:19:11.666Z,3.2
2023-04-15T23:21:32.434Z,3.2
2023-04-15T23:24:12.991Z,3.2
2023-04-15T23:26:53.535Z,3.2
2023-04-15T23:29:24.099Z,3.2
2023-04-15T23:31:54.680Z,3.2
2023-04-15T23:34:25.504Z,3.1
2023-04-15T23:36:56.122Z,3.1
2023-04-15T23:39:36.747Z,3.1
2023-04-15T23:42:07.315Z,3.1
2023-04-15T23:44:37.908Z,3.1
2023-04-15T23:47:08.502Z,3.1
2023-04-15T23:49:39.162Z,3.2
2023-04-15T23:52:09.720Z,3.1
2023-04-15T23:57:20.292Z,3.1
2023-04-15T23:59:50.844Z,3.1
